Terminal Aerodrome Forecast
Issued by NWS

Home | Current Version | Previous Version | Text Only | Print | Product List | Glossary On
Versions: 1 2 3 4 5 6 7 8 9 10 11 12 13 14 15 16 17 18 19 20 21 22 23 24 25 26 27 28 29 30 31 32 33 34 35 36 37 38 39 40 41 42 43 44
000
FTUS46 KOTX 110522
TAFPUW
TAF
KPUW 110522Z 1106/1206 13009KT 2SM -SN BKN009 OVC025
     FM111300 23010KT P6SM -SHSN BKN005 OVC007 WS020/23035KT
     FM111600 22015KT P6SM VCSH OVC005
     FM112100 18010KT 3SM -SN BKN007 OVC019=

USA.gov is the U.S. government's official web portal to all federal, state and local government web resources and services.